Safford, Arizona
Current Conditions -  °F | °C
As of 8:51 AM on Friday 21 Nov 2014 (Local Time) from KSAD Reporting Station
Clear Clear  
Wind Chill: 43°   Ceiling: Unl
Heat Index: 47°   Visibility: 10mi
Dew Point: 21°   Wind: 8mph
Humidity: 36%   Direction: 150°SSE
Pressure: 29.99"   Gusts: NA
Location:  32.83°N, 109.7°W
Report Text: KSAD 211551Z AUTO 15007KT 10SM CLR 08/M06 A2999 RMK AO2 SLP144 T00831061
Loading
Personal Weather Stations






























Interactive Weather Map New forecast layout! Learn more

10-Day Weather Forecast

Advertisements
Track Severe Weather on mobile